sensor_id;sensor_type;location;lat;lon;timestamp;pressure;altitude;pressure_sealevel;temperature;humidity
68712;BME280;55690;51.566;19.198;2023-02-03T00:00:31;102196.47;;;4.60;81.67
68712;BME280;55690;51.566;19.198;2023-02-03T00:04:37;102194.06;;;4.50;82.79
68712;BME280;55690;51.566;19.198;2023-02-03T00:08:43;102192.55;;;4.74;80.57
68712;BME280;55690;51.566;19.198;2023-02-03T00:12:50;102201.74;;;4.97;81.62
68712;BME280;55690;51.566;19.198;2023-02-03T00:16:57;102203.05;;;4.83;81.67
68712;BME280;55690;51.566;19.198;2023-02-03T00:21:02;102203.76;;;4.89;80.40
68712;BME280;55690;51.566;19.198;2023-02-03T00:25:08;102214.36;;;4.95;81.12
68712;BME280;55690;51.566;19.198;2023-02-03T00:29:14;102216.53;;;4.81;79.71
68712;BME280;55690;51.566;19.198;2023-02-03T00:33:20;102225.88;;;4.68;80.87
68712;BME280;55690;51.566;19.198;2023-02-03T00:37:27;102227.11;;;4.55;82.15
68712;BME280;55690;51.566;19.198;2023-02-03T00:41:33;102211.62;;;4.64;79.73
68712;BME280;55690;51.566;19.198;2023-02-03T00:45:39;102215.88;;;4.73;80.95
68712;BME280;55690;51.566;19.198;2023-02-03T00:49:45;102222.03;;;4.77;80.40
68712;BME280;55690;51.566;19.198;2023-02-03T00:53:51;102215.58;;;4.84;80.27
68712;BME280;55690;51.566;19.198;2023-02-03T00:57:57;102208.02;;;4.98;80.98
68712;BME280;55690;51.566;19.198;2023-02-03T01:02:04;102210.23;;;4.82;80.63
68712;BME280;55690;51.566;19.198;2023-02-03T01:06:14;102215.08;;;5.02;81.21
68712;BME280;55690;51.566;19.198;2023-02-03T01:10:16;102202.43;;;4.73;81.25
68712;BME280;55690;51.566;19.198;2023-02-03T01:14:22;102193.67;;;4.65;81.59
68712;BME280;55690;51.566;19.198;2023-02-03T01:18:28;102192.31;;;4.81;80.97
68712;BME280;55690;51.566;19.198;2023-02-03T01:22:34;102194.35;;;4.73;81.25
68712;BME280;55690;51.566;19.198;2023-02-03T01:26:41;102182.55;;;4.77;80.67
68712;BME280;55690;51.566;19.198;2023-02-03T01:30:47;102191.82;;;4.67;81.89
68712;BME280;55690;51.566;19.198;2023-02-03T01:34:53;102185.00;;;4.86;82.36
68712;BME280;55690;51.566;19.198;2023-02-03T01:38:59;102180.61;;;4.50;82.63
68712;BME280;55690;51.566;19.198;2023-02-03T01:43:08;102173.71;;;4.74;82.50
68712;BME280;55690;51.566;19.198;2023-02-03T01:51:24;102169.38;;;4.68;82.06
68712;BME280;55690;51.566;19.198;2023-02-03T01:55:32;102167.28;;;4.78;81.08
68712;BME280;55690;51.566;19.198;2023-02-03T01:59:35;102155.65;;;4.77;79.78
68712;BME280;55690;51.566;19.198;2023-02-03T02:07:49;102166.59;;;4.37;80.68
68712;BME280;55690;51.566;19.198;2023-02-03T02:11:51;102157.67;;;4.35;81.18
68712;BME280;55690;51.566;19.198;2023-02-03T02:28:58;102110.46;;;4.25;81.16
68712;BME280;55690;51.566;19.198;2023-02-03T02:37:23;102094.52;;;4.17;81.62
68712;BME280;55690;51.566;19.198;2023-02-03T02:45:47;102117.43;;;3.96;81.87
68712;BME280;55690;51.566;19.198;2023-02-03T02:49:59;102139.23;;;4.21;81.47
68712;BME280;55690;51.566;19.198;2023-02-03T02:54:06;102139.88;;;4.31;81.78
68712;BME280;55690;51.566;19.198;2023-02-03T02:58:10;102135.99;;;4.07;81.54
68712;BME280;55690;51.566;19.198;2023-02-03T03:02:14;102132.80;;;3.91;82.24
68712;BME280;55690;51.566;19.198;2023-02-03T03:06:43;102126.00;;;3.77;82.69
68712;BME280;55690;51.566;19.198;2023-02-03T03:10:30;102114.32;;;3.41;83.46
68712;BME280;55690;51.566;19.198;2023-02-03T03:14:34;102100.59;;;3.53;83.99
68712;BME280;55690;51.566;19.198;2023-02-03T03:18:45;102088.08;;;3.52;84.54
68712;BME280;55690;51.566;19.198;2023-02-03T03:22:56;102087.10;;;3.91;83.32
68712;BME280;55690;51.566;19.198;2023-02-03T03:27:07;102069.21;;;3.90;82.65
68712;BME280;55690;51.566;19.198;2023-02-03T03:31:10;102074.05;;;4.12;82.71
68712;BME280;55690;51.566;19.198;2023-02-03T03:35:11;102065.34;;;4.02;82.29
68712;BME280;55690;51.566;19.198;2023-02-03T03:39:23;102075.25;;;4.00;82.50
68712;BME280;55690;51.566;19.198;2023-02-03T03:43:30;102065.34;;;4.02;82.20
68712;BME280;55690;51.566;19.198;2023-02-03T03:48:23;102070.24;;;4.20;82.24
68712;BME280;55690;51.566;19.198;2023-02-03T03:51:53;102056.01;;;4.17;81.36
68712;BME280;55690;51.566;19.198;2023-02-03T03:55:59;102063.95;;;4.21;81.71
68712;BME280;55690;51.566;19.198;2023-02-03T04:00:05;102059.92;;;4.04;81.84
68712;BME280;55690;51.566;19.198;2023-02-03T04:04:10;102058.95;;;3.72;82.79
68712;BME280;55690;51.566;19.198;2023-02-03T04:08:13;102067.79;;;4.11;82.09
68712;BME280;55690;51.566;19.198;2023-02-03T04:12:22;102066.26;;;4.01;82.81
68712;BME280;55690;51.566;19.198;2023-02-03T04:16:24;102064.34;;;4.06;82.09
68712;BME280;55690;51.566;19.198;2023-02-03T04:20:25;102045.88;;;4.26;81.45
68712;BME280;55690;51.566;19.198;2023-02-03T04:24:27;102040.52;;;4.26;81.43
68712;BME280;55690;51.566;19.198;2023-02-03T04:28:28;102039.35;;;4.35;80.74
68712;BME280;55690;51.566;19.198;2023-02-03T04:32:30;102029.80;;;4.25;81.30
68712;BME280;55690;51.566;19.198;2023-02-03T04:36:32;102034.17;;;4.29;81.37
68712;BME280;55690;51.566;19.198;2023-02-03T04:40:33;102028.75;;;4.30;81.52
68712;BME280;55690;51.566;19.198;2023-02-03T04:44:35;102021.08;;;3.83;82.77
68712;BME280;55690;51.566;19.198;2023-02-03T04:48:36;102021.02;;;4.18;82.24
68712;BME280;55690;51.566;19.198;2023-02-03T04:52:37;102013.94;;;3.82;82.63
68712;BME280;55690;51.566;19.198;2023-02-03T04:56:39;102014.69;;;3.51;83.29
68712;BME280;55690;51.566;19.198;2023-02-03T05:00:41;102013.51;;;3.97;82.94
68712;BME280;55690;51.566;19.198;2023-02-03T05:04:42;101995.42;;;4.04;82.50
68712;BME280;55690;51.566;19.198;2023-02-03T05:08:44;101989.05;;;4.08;81.83
68712;BME280;55690;51.566;19.198;2023-02-03T05:12:45;101979.46;;;3.97;82.18
68712;BME280;55690;51.566;19.198;2023-02-03T05:16:47;101982.15;;;3.97;82.74
68712;BME280;55690;51.566;19.198;2023-02-03T05:20:48;101959.11;;;3.89;83.07
68712;BME280;55690;51.566;19.198;2023-02-03T05:24:50;101956.55;;;3.84;82.75
68712;BME280;55690;51.566;19.198;2023-02-03T05:28:51;101944.55;;;4.28;81.80
68712;BME280;55690;51.566;19.198;2023-02-03T05:32:53;101939.71;;;3.78;82.80
68712;BME280;55690;51.566;19.198;2023-02-03T05:36:58;101942.20;;;3.85;82.92
68712;BME280;55690;51.566;19.198;2023-02-03T05:41:04;101935.48;;;4.00;82.18
68712;BME280;55690;51.566;19.198;2023-02-03T05:45:18;101920.41;;;3.94;82.89
68712;BME280;55690;51.566;19.198;2023-02-03T05:49:19;101915.57;;;3.76;83.10
68712;BME280;55690;51.566;19.198;2023-02-03T05:53:23;101920.73;;;3.84;83.51
68712;BME280;55690;51.566;19.198;2023-02-03T05:57:29;101918.46;;;3.34;84.26
68712;BME280;55690;51.566;19.198;2023-02-03T06:01:35;101911.56;;;3.58;84.38
68712;BME280;55690;51.566;19.198;2023-02-03T06:05:42;101906.70;;;3.40;84.44
68712;BME280;55690;51.566;19.198;2023-02-03T06:09:48;101907.23;;;3.53;83.83
68712;BME280;55690;51.566;19.198;2023-02-03T06:13:55;101899.34;;;3.81;84.01
68712;BME280;55690;51.566;19.198;2023-02-03T06:18:00;101896.05;;;3.70;84.18
68712;BME280;55690;51.566;19.198;2023-02-03T06:22:06;101893.27;;;3.73;84.25
68712;BME280;55690;51.566;19.198;2023-02-03T06:26:13;101878.25;;;3.65;83.94
68712;BME280;55690;51.566;19.198;2023-02-03T06:30:19;101865.02;;;3.25;85.56
68712;BME280;55690;51.566;19.198;2023-02-03T06:34:24;101868.55;;;2.92;87.17
68712;BME280;55690;51.566;19.198;2023-02-03T06:38:31;101862.25;;;3.28;86.92
68712;BME280;55690;51.566;19.198;2023-02-03T06:42:37;101853.27;;;2.95;87.19
68712;BME280;55690;51.566;19.198;2023-02-03T06:46:43;101845.30;;;2.55;87.61
68712;BME280;55690;51.566;19.198;2023-02-03T06:50:49;101847.50;;;2.75;87.53
68712;BME280;55690;51.566;19.198;2023-02-03T06:54:55;101835.95;;;2.72;87.23
68712;BME280;55690;51.566;19.198;2023-02-03T06:59:02;101830.46;;;3.12;86.99
68712;BME280;55690;51.566;19.198;2023-02-03T07:03:08;101826.35;;;3.32;86.13
68712;BME280;55690;51.566;19.198;2023-02-03T07:07:14;101813.48;;;3.11;86.62
68712;BME280;55690;51.566;19.198;2023-02-03T07:11:20;101799.30;;;3.06;86.82
68712;BME280;55690;51.566;19.198;2023-02-03T07:15:26;101797.21;;;3.50;86.23
68712;BME280;55690;51.566;19.198;2023-02-03T07:19:32;101783.36;;;3.34;86.41
68712;BME280;55690;51.566;19.198;2023-02-03T07:23:39;101774.66;;;3.24;85.87
68712;BME280;55690;51.566;19.198;2023-02-03T07:27:45;101768.92;;;3.38;86.07
68712;BME280;55690;51.566;19.198;2023-02-03T07:31:51;101764.66;;;3.31;85.26
68712;BME280;55690;51.566;19.198;2023-02-03T07:35:58;101753.46;;;3.77;84.62
68712;BME280;55690;51.566;19.198;2023-02-03T07:40:04;101748.48;;;3.63;84.92
68712;BME280;55690;51.566;19.198;2023-02-03T07:44:10;101728.37;;;4.06;83.56
68712;BME280;55690;51.566;19.198;2023-02-03T07:48:16;101724.88;;;3.75;83.90
68712;BME280;55690;51.566;19.198;2023-02-03T07:52:22;101716.37;;;3.29;84.71
68712;BME280;55690;51.566;19.198;2023-02-03T07:56:28;101702.13;;;3.86;84.09
68712;BME280;55690;51.566;19.198;2023-02-03T08:00:35;101684.13;;;3.60;83.57
68712;BME280;55690;51.566;19.198;2023-02-03T08:04:41;101660.10;;;4.12;82.92
68712;BME280;55690;51.566;19.198;2023-02-03T08:08:47;101659.95;;;3.90;82.79
68712;BME280;55690;51.566;19.198;2023-02-03T08:12:53;101645.19;;;4.29;82.52
68712;BME280;55690;51.566;19.198;2023-02-03T08:16:59;101647.34;;;3.90;83.66
68712;BME280;55690;51.566;19.198;2023-02-03T08:21:05;101627.27;;;4.02;82.71
68712;BME280;55690;51.566;19.198;2023-02-03T08:25:12;101624.71;;;4.25;82.07
68712;BME280;55690;51.566;19.198;2023-02-03T08:29:18;101620.02;;;3.78;82.33
68712;BME280;55690;51.566;19.198;2023-02-03T08:33:24;101614.15;;;3.65;82.99
68712;BME280;55690;51.566;19.198;2023-02-03T08:37:30;101606.50;;;4.07;82.34
68712;BME280;55690;51.566;19.198;2023-02-03T08:41:36;101590.48;;;4.30;82.50
68712;BME280;55690;51.566;19.198;2023-02-03T08:45:42;101578.50;;;3.88;81.99
68712;BME280;55690;51.566;19.198;2023-02-03T08:49:49;101567.53;;;4.20;81.62
68712;BME280;55690;51.566;19.198;2023-02-03T09:16:56;101538.75;;;1.90;93.35
68712;BME280;55690;51.566;19.198;2023-02-03T09:21:03;101517.56;;;2.15;91.45
68712;BME280;55690;51.566;19.198;2023-02-03T09:25:08;101515.84;;;2.45;91.32
68712;BME280;55690;51.566;19.198;2023-02-03T09:29:14;101501.21;;;2.24;92.19
68712;BME280;55690;51.566;19.198;2023-02-03T09:33:20;101498.23;;;2.65;92.42
68712;BME280;55690;51.566;19.198;2023-02-03T09:37:28;101488.53;;;2.30;93.99
68712;BME280;55690;51.566;19.198;2023-02-03T09:41:45;101472.36;;;2.33;95.35
68712;BME280;55690;51.566;19.198;2023-02-03T09:45:44;101461.90;;;2.85;94.44
68712;BME280;55690;51.566;19.198;2023-02-03T09:49:51;101456.35;;;2.91;94.17
68712;BME280;55690;51.566;19.198;2023-02-03T09:53:59;101437.63;;;2.89;94.72
68712;BME280;55690;51.566;19.198;2023-02-03T09:58:11;101422.90;;;3.03;94.71
68712;BME280;55690;51.566;19.198;2023-02-03T10:19:36;101336.76;;;2.84;96.46
68712;BME280;55690;51.566;19.198;2023-02-03T10:23:37;101322.28;;;2.89;96.94
68712;BME280;55690;51.566;19.198;2023-02-03T10:27:40;101299.97;;;3.14;96.54
68712;BME280;55690;51.566;19.198;2023-02-03T10:31:42;101284.09;;;2.55;98.14
68712;BME280;55690;51.566;19.198;2023-02-03T10:35:54;101279.31;;;2.91;98.40
68712;BME280;55690;51.566;19.198;2023-02-03T10:40:00;101252.80;;;3.56;96.98
68712;BME280;55690;51.566;19.198;2023-02-03T10:44:05;101231.66;;;3.47;96.54
68712;BME280;55690;51.566;19.198;2023-02-03T10:48:14;101221.01;;;3.21;96.90
68712;BME280;55690;51.566;19.198;2023-02-03T10:52:32;101202.02;;;3.02;97.46
68712;BME280;55690;51.566;19.198;2023-02-03T10:56:35;101180.87;;;3.18;98.06
68712;BME280;55690;51.566;19.198;2023-02-03T11:00:38;101168.04;;;3.26;96.90
68712;BME280;55690;51.566;19.198;2023-02-03T11:04:40;101145.24;;;3.38;96.50
68712;BME280;55690;51.566;19.198;2023-02-03T11:08:46;101122.53;;;2.99;98.34
68712;BME280;55690;51.566;19.198;2023-02-03T11:12:48;101106.59;;;2.70;98.68
68712;BME280;55690;51.566;19.198;2023-02-03T11:16:49;101088.81;;;3.39;97.60
68712;BME280;55690;51.566;19.198;2023-02-03T11:20:50;101060.48;;;3.76;96.13
68712;BME280;55690;51.566;19.198;2023-02-03T11:24:52;101043.60;;;3.28;96.73
68712;BME280;55690;51.566;19.198;2023-02-03T11:28:57;101044.74;;;2.99;98.52
68712;BME280;55690;51.566;19.198;2023-02-03T11:33:01;101043.71;;;3.25;98.62
68712;BME280;55690;51.566;19.198;2023-02-03T11:41:19;101008.72;;;3.05;98.15
68712;BME280;55690;51.566;19.198;2023-02-03T11:45:31;100992.45;;;3.10;97.97
68712;BME280;55690;51.566;19.198;2023-02-03T12:23:29;100846.27;;;3.60;97.97
68712;BME280;55690;51.566;19.198;2023-02-03T12:27:42;100845.73;;;3.32;98.95
68712;BME280;55690;51.566;19.198;2023-02-03T12:36:14;100803.41;;;3.39;99.38
68712;BME280;55690;51.566;19.198;2023-02-03T12:40:21;100794.22;;;3.44;99.17
68712;BME280;55690;51.566;19.198;2023-02-03T12:44:33;100768.60;;;3.76;97.30
68712;BME280;55690;51.566;19.198;2023-02-03T12:52:59;100732.74;;;3.38;98.99
68712;BME280;55690;51.566;19.198;2023-02-03T12:57:13;100718.20;;;3.62;98.82
68712;BME280;55690;51.566;19.198;2023-02-03T13:09:52;100694.57;;;4.44;96.04
68712;BME280;55690;51.566;19.198;2023-02-03T13:14:02;100660.60;;;3.88;97.58
68712;BME280;55690;51.566;19.198;2023-02-03T13:18:13;100658.51;;;4.31;96.75
68712;BME280;55690;51.566;19.198;2023-02-03T13:22:20;100650.76;;;4.42;97.23
68712;BME280;55690;51.566;19.198;2023-02-03T13:43:25;100572.95;;;4.22;97.62
68712;BME280;55690;51.566;19.198;2023-02-03T13:47:32;100545.55;;;3.96;99.35
68712;BME280;55690;51.566;19.198;2023-02-03T13:51:44;100558.88;;;4.51;97.28
68712;BME280;55690;51.566;19.198;2023-02-03T13:55:59;100550.21;;;3.93;98.66
68712;BME280;55690;51.566;19.198;2023-02-03T14:08:41;100515.41;;;4.26;97.51
68712;BME280;55690;51.566;19.198;2023-02-03T14:12:55;100513.32;;;4.48;97.42
68712;BME280;55690;51.566;19.198;2023-02-03T14:16:59;100495.25;;;4.17;97.79
68712;BME280;55690;51.566;19.198;2023-02-03T14:25:17;100490.16;;;4.46;97.42
68712;BME280;55690;51.566;19.198;2023-02-03T14:29:25;100474.57;;;4.52;97.48
68712;BME280;55690;51.566;19.198;2023-02-03T14:38:03;100456.30;;;4.59;96.17
68712;BME280;55690;51.566;19.198;2023-02-03T15:47:22;100467.05;;;5.39;100.00
68712;BME280;55690;51.566;19.198;2023-02-03T15:54:33;100486.12;;;4.54;100.00
68712;BME280;55690;51.566;19.198;2023-02-03T15:58:45;100479.69;;;4.90;100.00
68712;BME280;55690;51.566;19.198;2023-02-03T16:02:47;100484.67;;;5.29;98.61
68712;BME280;55690;51.566;19.198;2023-02-03T16:06:50;100480.59;;;5.38;97.98
68712;BME280;55690;51.566;19.198;2023-02-03T16:10:52;100485.55;;;5.45;98.19
68712;BME280;55690;51.566;19.198;2023-02-03T16:14:57;100489.77;;;5.81;97.34
68712;BME280;55690;51.566;19.198;2023-02-03T16:22:29;100507.90;;;6.09;96.26
68712;BME280;55690;51.566;19.198;2023-02-03T16:26:38;100501.08;;;6.03;95.42
68712;BME280;55690;51.566;19.198;2023-02-03T16:35:08;100521.41;;;6.53;94.50
68712;BME280;55690;51.566;19.198;2023-02-03T16:39:22;100513.99;;;6.42;94.95
68712;BME280;55690;51.566;19.198;2023-02-03T16:43:35;100522.36;;;6.38;93.90
68712;BME280;55690;51.566;19.198;2023-02-03T16:47:49;100516.88;;;6.53;93.70
68712;BME280;55690;51.566;19.198;2023-02-03T16:52:02;100517.90;;;6.81;93.68
68712;BME280;55690;51.566;19.198;2023-02-03T16:56:08;100523.98;;;6.84;93.42
68712;BME280;55690;51.566;19.198;2023-02-03T17:00:11;100525.62;;;6.87;94.36
68712;BME280;55690;51.566;19.198;2023-02-03T17:04:13;100526.09;;;7.08;93.76
68712;BME280;55690;51.566;19.198;2023-02-03T17:08:16;100542.38;;;6.78;94.55
68712;BME280;55690;51.566;19.198;2023-02-03T17:12:18;100533.75;;;6.57;95.85
68712;BME280;55690;51.566;19.198;2023-02-03T17:16:21;100538.52;;;6.96;93.73
68712;BME280;55690;51.566;19.198;2023-02-03T17:20:24;100544.34;;;6.46;96.11
68712;BME280;55690;51.566;19.198;2023-02-03T17:24:26;100549.60;;;6.77;94.41
68712;BME280;55690;51.566;19.198;2023-02-03T17:28:27;100562.63;;;6.85;93.82
68712;BME280;55690;51.566;19.198;2023-02-03T17:32:29;100561.64;;;6.72;94.83
68712;BME280;55690;51.566;19.198;2023-02-03T17:36:30;100574.59;;;6.51;95.42
68712;BME280;55690;51.566;19.198;2023-02-03T17:40:32;100536.26;;;6.46;94.67
68712;BME280;55690;51.566;19.198;2023-02-03T17:44:34;100579.56;;;6.73;95.02
68712;BME280;55690;51.566;19.198;2023-02-03T17:48:36;100591.42;;;6.70;94.78
68712;BME280;55690;51.566;19.198;2023-02-03T17:52:43;100592.32;;;6.99;93.50
68712;BME280;55690;51.566;19.198;2023-02-03T17:56:48;100598.59;;;6.99;93.57
68712;BME280;55690;51.566;19.198;2023-02-03T18:00:54;100607.33;;;6.75;94.85
68712;BME280;55690;51.566;19.198;2023-02-03T18:05:01;100611.63;;;6.93;94.51
68712;BME280;55690;51.566;19.198;2023-02-03T18:09:08;100617.52;;;7.14;93.70
68712;BME280;55690;51.566;19.198;2023-02-03T18:13:13;100608.96;;;7.36;92.49
68712;BME280;55690;51.566;19.198;2023-02-03T18:17:19;100621.52;;;6.78;94.50
68712;BME280;55690;51.566;19.198;2023-02-03T18:21:26;100630.20;;;6.97;93.58
68712;BME280;55690;51.566;19.198;2023-02-03T18:25:34;100626.45;;;6.86;94.03
68712;BME280;55690;51.566;19.198;2023-02-03T18:29:38;100636.01;;;7.06;93.23
68712;BME280;55690;51.566;19.198;2023-02-03T18:33:44;100651.24;;;6.92;94.95
68712;BME280;55690;51.566;19.198;2023-02-03T18:37:50;100646.72;;;6.93;94.28
68712;BME280;55690;51.566;19.198;2023-02-03T18:41:56;100654.51;;;6.38;96.43
68712;BME280;55690;51.566;19.198;2023-02-03T18:46:11;100658.74;;;6.87;95.54
68712;BME280;55690;51.566;19.198;2023-02-03T18:50:13;100648.40;;;7.52;91.34
68712;BME280;55690;51.566;19.198;2023-02-03T18:54:15;100648.41;;;8.22;90.13
68712;BME280;55690;51.566;19.198;2023-02-03T18:58:21;100643.88;;;8.22;90.02
68712;BME280;55690;51.566;19.198;2023-02-03T19:02:27;100643.41;;;8.70;87.84
68712;BME280;55690;51.566;19.198;2023-02-03T19:06:34;100651.42;;;8.71;87.73
68712;BME280;55690;51.566;19.198;2023-02-03T19:10:40;100639.04;;;8.94;87.06
68712;BME280;55690;51.566;19.198;2023-02-03T19:14:46;100649.16;;;8.65;87.64
68712;BME280;55690;51.566;19.198;2023-02-03T19:18:52;100650.89;;;8.66;87.71
68712;BME280;55690;51.566;19.198;2023-02-03T19:22:58;100647.68;;;8.86;87.80
68712;BME280;55690;51.566;19.198;2023-02-03T19:27:04;100655.49;;;8.91;87.47
68712;BME280;55690;51.566;19.198;2023-02-03T19:31:13;100653.70;;;9.29;86.18
68712;BME280;55690;51.566;19.198;2023-02-03T19:35:17;100651.09;;;9.03;86.18
68712;BME280;55690;51.566;19.198;2023-02-03T19:39:23;100653.62;;;8.79;87.18
68712;BME280;55690;51.566;19.198;2023-02-03T19:43:30;100658.59;;;9.37;85.06
68712;BME280;55690;51.566;19.198;2023-02-03T19:47:35;100661.91;;;9.91;83.90
68712;BME280;55690;51.566;19.198;2023-02-03T19:51:43;100663.76;;;9.15;85.05
68712;BME280;55690;51.566;19.198;2023-02-03T19:55:48;100675.27;;;8.66;87.01
68712;BME280;55690;51.566;19.198;2023-02-03T19:59:54;100668.20;;;9.03;85.85
68712;BME280;55690;51.566;19.198;2023-02-03T20:04:00;100664.59;;;8.90;87.37
68712;BME280;55690;51.566;19.198;2023-02-03T20:08:06;100664.63;;;9.03;86.11
68712;BME280;55690;51.566;19.198;2023-02-03T20:12:12;100661.60;;;9.07;85.79
68712;BME280;55690;51.566;19.198;2023-02-03T20:16:19;100660.84;;;9.18;85.94
68712;BME280;55690;51.566;19.198;2023-02-03T20:20:24;100666.38;;;9.29;85.83
68712;BME280;55690;51.566;19.198;2023-02-03T20:24:31;100668.97;;;9.18;85.90
68712;BME280;55690;51.566;19.198;2023-02-03T20:28:37;100657.89;;;8.95;86.35
68712;BME280;55690;51.566;19.198;2023-02-03T20:32:43;100678.06;;;9.17;85.55
68712;BME280;55690;51.566;19.198;2023-02-03T20:36:49;100680.46;;;9.21;84.77
68712;BME280;55690;51.566;19.198;2023-02-03T20:40:56;100687.38;;;9.13;86.07
68712;BME280;55690;51.566;19.198;2023-02-03T20:45:08;100691.60;;;8.64;86.66
68712;BME280;55690;51.566;19.198;2023-02-03T20:49:12;100690.50;;;8.67;87.26
68712;BME280;55690;51.566;19.198;2023-02-03T20:53:23;100691.82;;;9.14;85.90
68712;BME280;55690;51.566;19.198;2023-02-03T20:57:25;100693.66;;;9.13;85.87
68712;BME280;55690;51.566;19.198;2023-02-03T21:01:27;100698.23;;;9.25;84.80
68712;BME280;55690;51.566;19.198;2023-02-03T21:05:38;100686.33;;;9.91;82.78
68712;BME280;55690;51.566;19.198;2023-02-03T21:09:41;100678.35;;;10.26;80.67
68712;BME280;55690;51.566;19.198;2023-02-03T21:13:46;100684.44;;;10.05;82.39
68712;BME280;55690;51.566;19.198;2023-02-03T21:17:51;100679.61;;;9.72;82.07
68712;BME280;55690;51.566;19.198;2023-02-03T21:21:58;100677.89;;;9.45;82.83
68712;BME280;55690;51.566;19.198;2023-02-03T21:30:26;100681.32;;;9.09;85.48
68712;BME280;55690;51.566;19.198;2023-02-03T21:34:33;100683.17;;;9.09;85.18
68712;BME280;55690;51.566;19.198;2023-02-03T21:38:37;100680.67;;;9.06;85.02
68712;BME280;55690;51.566;19.198;2023-02-03T21:42:38;100687.44;;;9.51;83.42
68712;BME280;55690;51.566;19.198;2023-02-03T21:46:42;100694.23;;;9.56;83.47
68712;BME280;55690;51.566;19.198;2023-02-03T21:50:44;100700.44;;;9.46;83.92
68712;BME280;55690;51.566;19.198;2023-02-03T21:54:47;100698.03;;;9.54;83.75
68712;BME280;55690;51.566;19.198;2023-02-03T21:58:54;100710.67;;;9.15;84.48
68712;BME280;55690;51.566;19.198;2023-02-03T22:03:00;100704.55;;;9.64;83.34
68712;BME280;55690;51.566;19.198;2023-02-03T22:07:13;100689.80;;;9.81;82.01
68712;BME280;55690;51.566;19.198;2023-02-03T22:11:17;100693.59;;;9.27;83.86
68712;BME280;55690;51.566;19.198;2023-02-03T22:15:20;100681.91;;;9.52;82.93
68712;BME280;55690;51.566;19.198;2023-02-03T22:19:24;100687.63;;;9.60;82.20
68712;BME280;55690;51.566;19.198;2023-02-03T22:23:30;100685.01;;;9.21;83.58
68712;BME280;55690;51.566;19.198;2023-02-03T22:27:36;100686.62;;;8.71;85.58
68712;BME280;55690;51.566;19.198;2023-02-03T22:31:43;100684.55;;;9.02;84.89
68712;BME280;55690;51.566;19.198;2023-02-03T22:35:48;100682.33;;;8.81;85.82
68712;BME280;55690;51.566;19.198;2023-02-03T22:39:55;100685.59;;;9.51;83.77
68712;BME280;55690;51.566;19.198;2023-02-03T22:44:01;100682.34;;;9.46;83.78
68712;BME280;55690;51.566;19.198;2023-02-03T22:48:07;100676.16;;;9.44;83.84
68712;BME280;55690;51.566;19.198;2023-02-03T22:52:13;100673.11;;;9.36;83.32
68712;BME280;55690;51.566;19.198;2023-02-03T22:56:19;100680.80;;;9.29;83.41
68712;BME280;55690;51.566;19.198;2023-02-03T23:00:26;100673.06;;;9.11;84.49
68712;BME280;55690;51.566;19.198;2023-02-03T23:04:32;100672.97;;;8.99;84.26
68712;BME280;55690;51.566;19.198;2023-02-03T23:08:38;100670.22;;;8.87;85.68
68712;BME280;55690;51.566;19.198;2023-02-03T23:12:44;100675.57;;;8.61;85.77
68712;BME280;55690;51.566;19.198;2023-02-03T23:16:50;100670.38;;;9.23;84.29
68712;BME280;55690;51.566;19.198;2023-02-03T23:20:56;100662.37;;;9.09;84.65
68712;BME280;55690;51.566;19.198;2023-02-03T23:25:03;100667.16;;;8.79;85.44
68712;BME280;55690;51.566;19.198;2023-02-03T23:29:09;100672.85;;;9.01;84.63
68712;BME280;55690;51.566;19.198;2023-02-03T23:33:16;100674.57;;;8.36;87.17
68712;BME280;55690;51.566;19.198;2023-02-03T23:37:21;100679.59;;;8.42;86.06
68712;BME280;55690;51.566;19.198;2023-02-03T23:41:27;100686.27;;;8.36;86.43
68712;BME280;55690;51.566;19.198;2023-02-03T23:45:33;100689.14;;;8.47;85.58
68712;BME280;55690;51.566;19.198;2023-02-03T23:49:40;100705.14;;;8.64;84.94
68712;BME280;55690;51.566;19.198;2023-02-03T23:53:46;100705.63;;;8.01;86.18
68712;BME280;55690;51.566;19.198;2023-02-03T23:57:52;100701.44;;;8.39;84.78
